createdAt,value
2019-04-21T00:01:55.963Z,54.58
2019-04-21T00:06:26.389Z,54.28
2019-04-21T00:10:33.352Z,54.68
2019-04-21T00:14:26.175Z,54.95
2019-04-21T00:18:49.866Z,55.09
2019-04-21T00:22:59.054Z,55.32
2019-04-21T00:27:12.542Z,55.60
2019-04-21T00:31:15.320Z,55.67
2019-04-21T00:35:13.169Z,56.44
2019-04-21T00:39:43.668Z,55.86
2019-04-21T00:43:38.824Z,55.84
2019-04-21T00:47:46.196Z,56.29
2019-04-21T00:52:25.188Z,55.96
2019-04-21T00:56:23.217Z,55.65
2019-04-21T01:00:27.767Z,55.82
2019-04-21T01:04:38.216Z,56.09
2019-04-21T01:08:41.430Z,56.50
2019-04-21T01:12:52.673Z,56.63
2019-04-21T01:16:57.410Z,56.65
2019-04-21T01:20:40.906Z,56.69
2019-04-21T01:24:48.825Z,56.89
2019-04-21T01:29:06.999Z,56.98
2019-04-21T01:33:21.701Z,57.24
2019-04-21T01:37:32.944Z,57.35
2019-04-21T01:41:33.654Z,56.98
2019-04-21T01:45:36.994Z,56.46
2019-04-21T01:49:37.018Z,56.38
2019-04-21T01:54:07.654Z,56.63
2019-04-21T01:58:03.319Z,56.87
2019-04-21T02:02:20.302Z,57.25
2019-04-21T02:10:37.881Z,57.80
2019-04-21T02:14:40.030Z,57.88
2019-04-21T02:18:42.195Z,57.65
2019-04-21T02:23:05.941Z,58.08
2019-04-21T02:27:00.489Z,58.23
2019-04-21T02:31:22.623Z,58.39
2019-04-21T02:35:42.866Z,58.85
2019-04-21T02:43:25.609Z,58.65
2019-04-21T02:47:50.387Z,58.98
2019-04-21T02:51:52.485Z,59.52
2019-04-21T02:55:51.431Z,59.88
2019-04-21T03:00:13.639Z,59.76
2019-04-21T03:08:25.305Z,60.16
2019-04-21T03:12:24.657Z,60.04
2019-04-21T03:16:31.136Z,59.96
2019-04-21T03:28:52.155Z,60.41
2019-04-21T03:33:46.951Z,60.73
2019-04-21T03:37:14.035Z,61.43
2019-04-21T03:41:26.744Z,61.85
2019-04-21T03:45:32.693Z,61.44
2019-04-21T03:49:51.289Z,61.38
2019-04-21T03:53:33.921Z,60.82
2019-04-21T03:57:55.448Z,60.64
2019-04-21T04:02:14.806Z,60.12
2019-04-21T04:06:13.748Z,60.63
2019-04-21T04:10:13.550Z,61.11
2019-04-21T04:14:26.778Z,61.20
2019-04-21T04:18:39.111Z,61.33
2019-04-21T04:26:41.013Z,61.02
2019-04-21T04:30:45.300Z,61.83
2019-04-21T04:34:57.218Z,61.33
2019-04-21T04:39:35.814Z,61.19
2019-04-21T04:47:24.343Z,60.94
2019-04-21T04:51:48.076Z,61.20
2019-04-21T04:55:47.914Z,60.88
2019-04-21T04:59:47.513Z,60.99
2019-04-21T05:03:58.547Z,61.24
2019-04-21T05:08:10.123Z,61.04
2019-04-21T05:12:06.000Z,61.96
2019-04-21T05:16:31.609Z,60.97
2019-04-21T05:20:17.115Z,61.37
2019-04-21T05:24:16.318Z,60.83
2019-04-21T05:28:20.097Z,60.61
2019-04-21T05:32:45.195Z,60.08
2019-04-21T05:36:55.480Z,55.24
2019-04-21T05:40:48.336Z,49.92
2019-04-21T05:45:12.749Z,49.39
2019-04-21T05:49:29.759Z,48.72
2019-04-21T05:53:39.308Z,42.82
2019-04-21T05:57:39.465Z,37.71
2019-04-21T06:01:58.431Z,34.57
2019-04-21T06:06:09.981Z,32.31
2019-04-21T06:10:22.497Z,30.75
2019-04-21T06:14:14.483Z,29.32
2019-04-21T06:18:27.413Z,28.32
2019-04-21T06:22:27.409Z,27.66
2019-04-21T06:26:51.810Z,26.78
2019-04-21T06:30:56.329Z,26.43
2019-04-21T06:35:08.277Z,25.89
2019-04-21T06:43:13.012Z,25.33
2019-04-21T06:47:06.382Z,25.12
2019-04-21T06:51:20.362Z,24.61
2019-04-21T06:55:20.490Z,23.79
2019-04-21T06:59:26.546Z,22.83
2019-04-21T07:03:38.784Z,23.66
2019-04-21T07:07:43.695Z,26.46
2019-04-21T07:11:42.169Z,30.32
2019-04-21T07:15:58.810Z,33.04
2019-04-21T07:24:14.146Z,36.20
2019-04-21T07:28:10.247Z,36.82
2019-04-21T07:32:22.154Z,37.10
2019-04-21T07:36:39.805Z,38.38
2019-04-21T07:40:29.016Z,38.67
2019-04-21T07:44:37.807Z,38.84
2019-04-21T07:48:50.102Z,39.92
2019-04-21T07:53:08.470Z,39.75
2019-04-21T07:56:58.965Z,39.84
2019-04-21T08:01:18.083Z,41.07
2019-04-21T08:09:29.250Z,41.02
2019-04-21T08:13:39.251Z,40.87
2019-04-21T08:17:41.400Z,40.26
2019-04-21T08:21:55.817Z,39.69
2019-04-21T08:30:05.036Z,37.61
2019-04-21T08:34:13.971Z,37.67
2019-04-21T08:38:16.481Z,37.76
2019-04-21T08:42:25.416Z,37.85
2019-04-21T08:46:36.755Z,38.19
2019-04-21T08:50:37.653Z,38.38
2019-04-21T08:54:47.763Z,37.85
2019-04-21T08:59:12.697Z,37.86
2019-04-21T09:03:25.504Z,37.49
2019-04-21T09:07:39.393Z,36.69
2019-04-21T09:11:40.484Z,36.32
2019-04-21T09:15:47.150Z,35.52
2019-04-21T09:20:01.783Z,36.26
2019-04-21T09:24:00.602Z,35.16
2019-04-21T09:28:06.983Z,33.76
2019-04-21T09:31:59.173Z,33.03
2019-04-21T09:36:06.188Z,32.57
2019-04-21T09:40:09.082Z,32.66
2019-04-21T09:44:20.813Z,31.93
2019-04-21T09:48:22.424Z,32.18
2019-04-21T09:52:39.161Z,32.00
2019-04-21T09:56:45.468Z,31.86
2019-04-21T10:00:49.895Z,31.77
2019-04-21T10:04:50.154Z,28.54
2019-04-21T10:09:01.219Z,28.39
2019-04-21T10:13:02.955Z,27.68
2019-04-21T10:17:27.766Z,28.41
2019-04-21T10:21:33.914Z,27.42
2019-04-21T10:25:38.840Z,27.38
2019-04-21T10:29:45.364Z,27.59
2019-04-21T10:33:50.372Z,29.32
2019-04-21T10:38:10.480Z,27.31
2019-04-21T10:42:01.902Z,27.24
2019-04-21T10:46:06.877Z,28.89
2019-04-21T10:50:13.079Z,28.18
2019-04-21T10:54:18.084Z,27.96
2019-04-21T10:58:28.481Z,28.42
2019-04-21T11:02:41.192Z,28.02
2019-04-21T11:06:46.451Z,27.82
2019-04-21T11:10:51.961Z,27.32
2019-04-21T11:14:56.993Z,27.79
2019-04-21T11:19:02.066Z,27.91
2019-04-21T11:23:08.026Z,26.66
2019-04-21T11:27:12.901Z,26.88
2019-04-21T11:31:18.803Z,26.89
2019-04-21T11:35:23.877Z,27.31
2019-04-21T11:39:39.258Z,26.47
2019-04-21T11:43:37.222Z,25.12
2019-04-21T11:47:43.755Z,25.86
2019-04-21T11:51:49.033Z,27.17
2019-04-21T11:55:55.538Z,26.17
2019-04-21T12:00:01.773Z,26.61
2019-04-21T12:04:09.739Z,27.01
2019-04-21T12:08:22.932Z,25.39
2019-04-21T12:12:21.404Z,25.07
2019-04-21T12:16:26.246Z,25.64
2019-04-21T12:20:31.229Z,26.55
2019-04-21T12:24:38.068Z,25.99
2019-04-21T12:28:45.957Z,26.11
2019-04-21T12:32:58.482Z,26.67
2019-04-21T12:37:04.618Z,26.03
2019-04-21T12:41:10.724Z,27.76
2019-04-21T12:45:17.313Z,26.16
2019-04-21T12:49:22.311Z,27.30
2019-04-21T12:53:27.692Z,27.50
2019-04-21T12:57:33.263Z,27.29
2019-04-21T13:01:39.015Z,27.11
2019-04-21T13:05:45.330Z,27.51
2019-04-21T13:09:50.510Z,28.23
2019-04-21T13:13:55.745Z,27.49
2019-04-21T13:18:00.764Z,27.33
2019-04-21T13:22:06.058Z,26.72
2019-04-21T13:26:11.386Z,26.80
2019-04-21T13:30:18.152Z,27.61
2019-04-21T13:34:24.113Z,27.79
2019-04-21T13:38:36.930Z,26.77
2019-04-21T13:42:42.676Z,27.26
2019-04-21T13:46:46.972Z,26.79
2019-04-21T13:50:53.483Z,26.26
2019-04-21T13:54:58.439Z,26.53
2019-04-21T13:59:04.218Z,26.63
2019-04-21T14:03:10.422Z,26.40
2019-04-21T14:07:16.457Z,26.05
2019-04-21T14:11:21.386Z,25.37
2019-04-21T14:15:26.422Z,26.18
2019-04-21T14:19:31.321Z,26.55
2019-04-21T14:23:43.685Z,25.99
2019-04-21T14:27:45.707Z,26.28
2019-04-21T14:31:50.553Z,25.34
2019-04-21T14:35:56.754Z,26.73
2019-04-21T14:40:07.494Z,26.21
2019-04-21T14:44:09.090Z,26.23
2019-04-21T14:48:32.865Z,25.44
2019-04-21T14:52:39.171Z,25.67
2019-04-21T14:56:44.964Z,25.00
2019-04-21T15:00:53.075Z,25.16
2019-04-21T15:04:57.929Z,25.14
2019-04-21T15:09:03.380Z,25.80
2019-04-21T15:13:08.343Z,25.15
2019-04-21T15:17:15.922Z,24.10
2019-04-21T15:21:19.836Z,24.68
2019-04-21T15:25:26.079Z,24.32
2019-04-21T15:29:30.982Z,24.41
2019-04-21T15:33:36.982Z,24.92
2019-04-21T15:37:42.112Z,25.71
2019-04-21T15:41:48.211Z,25.10
2019-04-21T15:45:53.727Z,25.19
2019-04-21T15:50:06.599Z,25.01
2019-04-21T15:54:06.878Z,25.18
2019-04-21T15:58:16.516Z,25.79
2019-04-21T16:02:40.822Z,25.61
2019-04-21T16:06:45.785Z,25.00
2019-04-21T16:10:56.531Z,25.58
2019-04-21T16:14:58.692Z,25.56
2019-04-21T16:19:03.988Z,25.36
2019-04-21T16:23:10.715Z,25.37
2019-04-21T16:27:15.650Z,25.47
2019-04-21T16:31:20.553Z,25.58
2019-04-21T16:35:26.732Z,25.90
2019-04-21T16:39:33.552Z,25.73
2019-04-21T16:43:38.560Z,26.03
2019-04-21T16:47:44.218Z,26.36
2019-04-21T16:51:51.922Z,25.73
2019-04-21T16:56:02.601Z,25.52
2019-04-21T17:00:13.850Z,25.33
2019-04-21T17:04:20.271Z,25.24
2019-04-21T17:08:26.122Z,25.49
2019-04-21T17:12:31.099Z,25.32
2019-04-21T17:16:55.162Z,25.78
2019-04-21T17:20:50.139Z,25.87
2019-04-21T17:24:50.569Z,26.48
2019-04-21T17:28:56.712Z,26.10
2019-04-21T17:33:01.731Z,25.98
2019-04-21T17:37:06.764Z,26.35
2019-04-21T17:41:21.600Z,26.44
2019-04-21T17:45:19.318Z,26.76
2019-04-21T17:49:25.222Z,27.25
2019-04-21T17:53:41.919Z,27.91
2019-04-21T17:58:00.845Z,28.85
2019-04-21T18:02:11.002Z,29.89
2019-04-21T18:06:10.565Z,30.33
2019-04-21T18:10:21.805Z,31.56
2019-04-21T18:14:11.416Z,32.52
2019-04-21T18:18:16.726Z,33.35
2019-04-21T18:22:40.957Z,33.21
2019-04-21T18:26:52.146Z,33.48
2019-04-21T18:31:06.886Z,33.62
2019-04-21T18:35:17.734Z,34.39
2019-04-21T18:39:40.639Z,35.41
2019-04-21T18:44:04.057Z,36.27
2019-04-21T18:48:10.280Z,36.39
2019-04-21T18:52:17.039Z,36.85
2019-04-21T18:56:16.733Z,37.14
2019-04-21T19:00:26.216Z,37.54
2019-04-21T19:04:30.028Z,38.08
2019-04-21T19:08:57.790Z,38.60
2019-04-21T19:17:29.112Z,38.70
2019-04-21T19:21:11.188Z,38.94
2019-04-21T19:25:34.578Z,39.17
2019-04-21T19:33:29.800Z,39.95
2019-04-21T19:37:24.393Z,39.88
2019-04-21T19:41:41.029Z,40.52
2019-04-21T19:45:45.920Z,39.96
2019-04-21T19:50:00.350Z,39.86
2019-04-21T19:53:55.990Z,40.39
2019-04-21T19:57:53.037Z,40.87
2019-04-21T20:01:58.303Z,41.27
2019-04-21T20:06:11.819Z,41.40
2019-04-21T20:10:44.498Z,41.71
2019-04-21T20:14:47.818Z,42.11
2019-04-21T20:18:32.815Z,42.90
2019-04-21T20:22:36.382Z,43.47
2019-04-21T20:26:41.671Z,43.04
2019-04-21T20:31:03.681Z,43.84
2019-04-21T20:35:18.274Z,43.53
2019-04-21T20:39:05.376Z,43.74
2019-04-21T20:43:33.719Z,44.61
2019-04-21T20:47:20.748Z,44.45
2019-04-21T20:51:35.641Z,44.50
2019-04-21T20:55:35.408Z,44.72
2019-04-21T20:59:43.929Z,44.70
2019-04-21T21:03:51.777Z,45.09
2019-04-21T21:08:10.239Z,45.62
2019-04-21T21:20:24.829Z,46.92
2019-04-21T21:24:39.156Z,46.96
2019-04-21T21:28:34.820Z,47.28
2019-04-21T21:32:44.610Z,47.67
2019-04-21T21:36:50.657Z,48.29
2019-04-21T21:40:51.726Z,48.50
2019-04-21T21:44:49.533Z,48.53
2019-04-21T21:49:01.956Z,48.96
2019-04-21T21:53:04.215Z,49.30
2019-04-21T21:57:04.942Z,49.72
2019-04-21T22:01:15.157Z,49.98
2019-04-21T22:05:24.379Z,50.17
2019-04-21T22:09:28.363Z,50.21
2019-04-21T22:13:43.587Z,50.29
2019-04-21T22:17:54.063Z,50.35
2019-04-21T22:22:08.342Z,50.59
2019-04-21T22:25:53.487Z,50.29
2019-04-21T22:30:03.290Z,50.47
2019-04-21T22:34:10.487Z,50.63
2019-04-21T22:38:28.379Z,51.16
2019-04-21T22:42:26.677Z,51.32
2019-04-21T22:46:26.380Z,51.14
2019-04-21T22:50:34.920Z,51.10
2019-04-21T22:54:43.262Z,51.10
2019-04-21T22:58:47.964Z,51.23
2019-04-21T23:03:01.321Z,52.88
2019-04-21T23:07:02.841Z,52.09
2019-04-21T23:11:10.793Z,52.16
2019-04-21T23:15:19.043Z,52.21
2019-04-21T23:19:36.313Z,51.68
2019-04-21T23:23:44.239Z,51.96
2019-04-21T23:27:59.148Z,51.98
2019-04-21T23:31:59.274Z,51.95
2019-04-21T23:35:49.507Z,52.33
2019-04-21T23:40:04.127Z,52.72
2019-04-21T23:44:05.909Z,52.82
2019-04-21T23:48:23.855Z,52.54
2019-04-21T23:52:17.570Z,52.66
2019-04-21T23:56:29.998Z,53.10
